Plainview, Virginia
Current Conditions -  °F | °C
As of 3:55 PM on Tuesday 21 Oct 2014 (Local Time) from KFYJ Reporting Station
Overcast Overcast  
Wind Chill: 73°   Ceiling: 9000
Heat Index: 73°   Visibility: 10mi
Dew Point: 46°   Wind: 3mph
Humidity: 39%   Direction: 220°SW
Pressure: 29.81"   Gusts: NA
Location:  37.5357°N, 76.7136°W
Report Text: KFYJ 211955Z AUTO 22003KT 10SM OVC090 23/08 A2981 RMK AO2 T02260078
Loading
Personal Weather Stations






























Interactive Weather Map
Tropical Storm Tracking
New forecast layout! Learn more

10-Day Weather Forecast

Advertisements
Track Severe Weather on mobile